createdAt,value
2022-12-08T00:02:15.470Z,100908.75
2022-12-08T00:05:04.870Z,100913.91
2022-12-08T00:07:54.274Z,100924.00
2022-12-08T00:10:48.472Z,100934.38
2022-12-08T00:13:19.192Z,100927.28
2022-12-08T00:15:50.070Z,100932.00
2022-12-08T00:18:20.821Z,100922.38
2022-12-08T00:20:57.318Z,100929.41
2022-12-08T00:23:28.260Z,100925.16
2022-12-08T00:26:02.556Z,100926.84
2022-12-08T00:28:34.472Z,100927.50
2022-12-08T00:31:12.079Z,100928.47
2022-12-08T00:33:42.451Z,100934.84
2022-12-08T00:36:15.310Z,100926.41
2022-12-08T00:38:46.037Z,100924.53
2022-12-08T00:41:40.732Z,100930.72
2022-12-08T00:44:16.446Z,100920.25
2022-12-08T00:46:47.374Z,100917.69
2022-12-08T00:49:19.259Z,100919.38
2022-12-08T00:51:50.063Z,100923.38
2022-12-08T00:54:22.195Z,100927.19
2022-12-08T00:56:53.031Z,100922.66
2022-12-08T00:59:23.875Z,100931.41
2022-12-08T01:01:54.195Z,100928.50
2022-12-08T01:04:25.129Z,100922.41
2022-12-08T01:06:56.471Z,100927.06
2022-12-08T01:09:27.313Z,100926.03
2022-12-08T01:11:57.878Z,100926.69
2022-12-08T01:14:28.967Z,100924.66
2022-12-08T01:16:59.248Z,100920.94
2022-12-08T01:19:31.836Z,100914.16
2022-12-08T01:22:02.513Z,100908.78
2022-12-08T01:24:33.568Z,100909.06
2022-12-08T01:27:04.282Z,100906.53
2022-12-08T01:29:35.491Z,100907.69
2022-12-08T01:32:05.641Z,100894.34
2022-12-08T01:34:36.615Z,100895.16
2022-12-08T01:37:07.437Z,100888.94
2022-12-08T01:39:38.204Z,100883.63
2022-12-08T01:42:24.317Z,100879.91
2022-12-08T01:44:58.780Z,100880.84
2022-12-08T01:47:38.065Z,100877.59
2022-12-08T01:50:11.895Z,100873.84
2022-12-08T01:52:47.800Z,100878.06
2022-12-08T01:55:26.675Z,100871.00
2022-12-08T01:58:24.670Z,100871.00
2022-12-08T02:00:55.925Z,100862.63
2022-12-08T02:03:31.124Z,100857.22
2022-12-08T02:06:01.790Z,100848.09
2022-12-08T02:08:32.921Z,100847.72
2022-12-08T02:11:03.750Z,100850.81
2022-12-08T02:13:34.588Z,100843.53
2022-12-08T02:16:22.694Z,100841.84
2022-12-08T02:19:34.032Z,100828.53
2022-12-08T02:22:08.711Z,100823.88
2022-12-08T02:24:47.485Z,100828.25
2022-12-08T02:27:45.616Z,100817.00
2022-12-08T02:30:48.835Z,100823.59
2022-12-08T02:34:13.836Z,100822.56
2022-12-08T02:37:02.101Z,100811.28
2022-12-08T02:39:47.064Z,100813.97
2022-12-08T02:42:32.361Z,100809.13
2022-12-08T02:45:23.807Z,100809.34
2022-12-08T02:47:54.705Z,100798.91
2022-12-08T02:50:25.404Z,100808.84
2022-12-08T02:52:56.082Z,100801.59
2022-12-08T02:55:34.320Z,100792.28
2022-12-08T02:58:31.642Z,100794.03
2022-12-08T03:01:29.956Z,100791.47
2022-12-08T03:04:22.977Z,100801.41
2022-12-08T03:07:05.000Z,100794.81
2022-12-08T03:09:36.109Z,100784.00
2022-12-08T03:12:24.681Z,100785.41
2022-12-08T03:14:57.680Z,100777.16
2022-12-08T03:17:31.149Z,100772.66
2022-12-08T03:20:05.985Z,100766.44
2022-12-08T03:22:36.716Z,100763.16
2022-12-08T03:25:08.257Z,100756.97
2022-12-08T03:27:39.654Z,100750.53
2022-12-08T03:30:10.663Z,100746.16
2022-12-08T03:32:49.772Z,100746.16
2022-12-08T03:35:24.396Z,100748.47
2022-12-08T03:38:04.408Z,100747.44
2022-12-08T03:40:35.260Z,100755.78
2022-12-08T03:43:05.598Z,100755.38
2022-12-08T03:45:36.544Z,100749.97
2022-12-08T03:48:07.398Z,100743.69
2022-12-08T03:50:38.649Z,100746.56
2022-12-08T03:53:09.331Z,100746.78
2022-12-08T03:55:39.871Z,100734.47
2022-12-08T03:58:10.401Z,100723.97
2022-12-08T04:00:44.391Z,100720.03
2022-12-08T04:03:14.811Z,100712.81
2022-12-08T04:05:45.460Z,100721.16
2022-12-08T04:08:19.417Z,100714.16
2022-12-08T04:10:50.321Z,100706.06
2022-12-08T04:13:20.604Z,100698.47
2022-12-08T04:15:51.823Z,100703.31
2022-12-08T04:18:22.367Z,100680.00
2022-12-08T04:20:52.626Z,100668.84
2022-12-08T04:23:23.099Z,100660.72
2022-12-08T04:25:54.441Z,100661.38
2022-12-08T04:28:25.736Z,100656.00
2022-12-08T04:31:00.715Z,100658.72
2022-12-08T04:33:32.277Z,100642.13
2022-12-08T04:36:07.559Z,100646.47
2022-12-08T04:38:37.838Z,100638.78
2022-12-08T04:41:08.566Z,100625.25
2022-12-08T04:43:38.809Z,100621.53
2022-12-08T04:46:13.526Z,100633.81
2022-12-08T04:48:47.164Z,100619.63
2022-12-08T04:51:20.596Z,100618.19
2022-12-08T04:53:51.419Z,100613.84
2022-12-08T04:56:22.054Z,100605.25
2022-12-08T04:58:55.218Z,100599.22
2022-12-08T05:01:26.390Z,100599.25
2022-12-08T05:03:57.285Z,100594.03
2022-12-08T05:06:28.455Z,100591.72
2022-12-08T05:08:59.541Z,100583.81
2022-12-08T05:11:30.223Z,100572.34
2022-12-08T05:14:01.011Z,100565.84
2022-12-08T05:16:32.836Z,100568.56
2022-12-08T05:19:03.442Z,100559.59
2022-12-08T05:21:33.861Z,100546.66
2022-12-08T05:24:08.144Z,100553.94
2022-12-08T05:26:39.442Z,100542.69
2022-12-08T05:29:09.771Z,100542.28
2022-12-08T05:31:40.055Z,100535.59
2022-12-08T05:34:10.625Z,100532.28
2022-12-08T05:36:41.355Z,100532.72
2022-12-08T05:39:16.174Z,100530.25
2022-12-08T05:41:46.468Z,100524.63
2022-12-08T05:44:17.145Z,100526.50
2022-12-08T05:46:47.461Z,100518.94
2022-12-08T05:49:18.400Z,100517.69
2022-12-08T05:51:48.976Z,100511.66
2022-12-08T05:54:19.790Z,100513.50
2022-12-08T05:56:50.646Z,100516.84
2022-12-08T05:59:24.279Z,100507.03
2022-12-08T06:01:55.349Z,100513.63
2022-12-08T06:04:25.802Z,100514.56
2022-12-08T06:06:56.634Z,100509.56
2022-12-08T06:09:26.985Z,100517.47
2022-12-08T06:12:01.981Z,100493.22
2022-12-08T06:14:36.413Z,100498.38
2022-12-08T06:17:06.818Z,100499.38
2022-12-08T06:19:37.791Z,100498.34
2022-12-08T06:22:08.281Z,100497.72
2022-12-08T06:24:38.989Z,100494.84
2022-12-08T06:27:09.311Z,100492.00
2022-12-08T06:29:40.034Z,100488.69
2022-12-08T06:32:10.605Z,100487.44
2022-12-08T06:34:41.259Z,100496.44
2022-12-08T06:37:12.163Z,100509.69
2022-12-08T06:39:42.481Z,100495.50
2022-12-08T06:42:31.328Z,100506.19
2022-12-08T06:45:01.842Z,100493.91
2022-12-08T06:47:32.847Z,100503.28
2022-12-08T06:50:04.225Z,100499.78
2022-12-08T06:52:40.869Z,100498.53
2022-12-08T06:55:35.315Z,100499.81
2022-12-08T06:58:07.587Z,100496.50
2022-12-08T07:00:38.146Z,100494.22
2022-12-08T07:03:10.126Z,100494.63
2022-12-08T07:05:40.884Z,100486.50
2022-12-08T07:08:11.701Z,100481.28
2022-12-08T07:10:42.971Z,100482.72
2022-12-08T07:13:13.573Z,100491.88
2022-12-08T07:15:44.686Z,100487.50
2022-12-08T07:18:15.328Z,100494.78
2022-12-08T07:20:46.239Z,100491.03
2022-12-08T07:23:16.630Z,100494.78
2022-12-08T07:25:47.600Z,100493.13
2022-12-08T07:28:17.878Z,100490.84
2022-12-08T07:30:48.451Z,100501.06
2022-12-08T07:33:19.372Z,100503.97
2022-12-08T07:36:00.250Z,100515.22
2022-12-08T07:38:31.517Z,100506.09
2022-12-08T07:41:02.796Z,100508.78
2022-12-08T07:43:33.981Z,100514.84
2022-12-08T07:46:04.386Z,100520.69
2022-12-08T07:48:35.000Z,100516.09
2022-12-08T07:51:06.801Z,100518.19
2022-12-08T07:53:37.298Z,100518.63
2022-12-08T07:56:08.874Z,100518.84
2022-12-08T07:58:39.758Z,100513.19
2022-12-08T08:01:30.513Z,100511.53
2022-12-08T08:04:03.262Z,100517.16
2022-12-08T08:06:35.629Z,100511.94
2022-12-08T08:09:37.718Z,100516.53
2022-12-08T08:12:30.215Z,100523.19
2022-12-08T08:14:58.992Z,100530.28
2022-12-08T08:17:30.595Z,100530.69
2022-12-08T08:20:01.862Z,100536.34
2022-12-08T08:22:32.852Z,100538.63
2022-12-08T08:25:03.918Z,100547.38
2022-12-08T08:27:34.237Z,100547.38
2022-12-08T08:30:07.102Z,100545.69
2022-12-08T08:32:38.220Z,100555.91
2022-12-08T08:35:10.449Z,100553.19
2022-12-08T08:37:45.594Z,100557.34
2022-12-08T08:40:20.902Z,100556.53
2022-12-08T08:42:53.728Z,100552.38
2022-12-08T08:45:24.459Z,100558.63
2022-12-08T08:47:55.114Z,100570.06
2022-12-08T08:50:25.620Z,100571.94
2022-12-08T08:52:55.916Z,100571.50
2022-12-08T08:55:26.681Z,100576.72
2022-12-08T08:57:57.145Z,100575.06
2022-12-08T09:00:28.908Z,100573.38
2022-12-08T09:02:59.514Z,100569.41
2022-12-08T09:05:30.288Z,100580.25
2022-12-08T09:08:00.564Z,100578.16
2022-12-08T09:10:31.261Z,100584.81
2022-12-08T09:13:01.511Z,100583.16
2022-12-08T09:15:32.903Z,100581.66
2022-12-08T09:18:03.336Z,100586.88
2022-12-08T09:20:34.946Z,100580.22
2022-12-08T09:23:05.612Z,100576.66
2022-12-08T09:25:36.094Z,100583.75
2022-12-08T09:28:06.457Z,100577.72
2022-12-08T09:30:37.008Z,100580.19
2022-12-08T09:33:07.530Z,100585.81
2022-12-08T09:35:37.909Z,100592.28
2022-12-08T09:38:14.271Z,100585.59
2022-12-08T09:40:51.081Z,100596.19
2022-12-08T09:43:42.136Z,100605.56
2022-12-08T09:46:15.849Z,100604.72
2022-12-08T09:48:56.795Z,100609.72
2022-12-08T09:51:32.988Z,100608.25
2022-12-08T09:54:17.329Z,100611.56
2022-12-08T09:56:47.994Z,100601.16
2022-12-08T09:59:32.428Z,100602.59
2022-12-08T10:02:03.864Z,100594.09
2022-12-08T10:04:39.180Z,100602.59
2022-12-08T10:07:23.098Z,100598.06
2022-12-08T10:10:14.441Z,100598.47
2022-12-08T10:13:04.796Z,100601.38
2022-12-08T10:15:48.430Z,100598.47
2022-12-08T10:18:27.226Z,100608.00
2022-12-08T10:21:23.201Z,100608.66
2022-12-08T10:23:58.066Z,100611.75
2022-12-08T10:26:33.535Z,100611.75
2022-12-08T10:29:08.017Z,100609.88
2022-12-08T10:31:38.772Z,100617.56
2022-12-08T10:34:35.164Z,100620.91
2022-12-08T10:37:11.299Z,100628.78
2022-12-08T10:39:46.726Z,100638.31
2022-12-08T10:42:22.510Z,100631.84
2022-12-08T10:45:16.638Z,100640.63
2022-12-08T10:47:57.573Z,100649.56
2022-12-08T10:50:31.283Z,100649.50
2022-12-08T10:53:11.333Z,100646.56
2022-12-08T10:56:05.143Z,100659.47
2022-12-08T10:58:45.952Z,100660.47
2022-12-08T11:01:26.081Z,100671.47
2022-12-08T11:03:57.764Z,100675.59
2022-12-08T11:06:34.208Z,100680.22
2022-12-08T11:09:24.935Z,100687.44
2022-12-08T11:11:59.717Z,100681.41
2022-12-08T11:14:33.602Z,100687.19
2022-12-08T11:17:28.678Z,100696.34
2022-12-08T11:20:23.887Z,100705.09
2022-12-08T11:22:56.676Z,100707.16
2022-12-08T11:25:31.300Z,100709.22
2022-12-08T11:28:03.390Z,100698.00
2022-12-08T11:30:43.248Z,100691.34
2022-12-08T11:33:29.051Z,100686.31
2022-12-08T11:36:08.701Z,100692.50
2022-12-08T11:38:43.790Z,100696.25
2022-12-08T11:41:24.330Z,100698.69
2022-12-08T11:44:05.920Z,100697.00
2022-12-08T11:46:40.511Z,100693.66
2022-12-08T11:49:16.586Z,100704.47
2022-12-08T11:51:56.299Z,100715.28
2022-12-08T11:54:43.459Z,100713.34
2022-12-08T11:57:21.797Z,100706.53
2022-12-08T11:59:53.866Z,100713.09
2022-12-08T12:02:30.897Z,100714.78
2022-12-08T12:05:47.858Z,100705.78
2022-12-08T12:08:46.422Z,100706.28
2022-12-08T12:12:20.126Z,100707.56
2022-12-08T12:15:20.896Z,100705.50
2022-12-08T12:18:09.752Z,100700.53
2022-12-08T12:21:07.197Z,100705.97
2022-12-08T12:23:48.045Z,100707.00
2022-12-08T12:26:31.019Z,100705.97
2022-12-08T12:29:07.424Z,100708.03
2022-12-08T12:31:44.109Z,100704.50
2022-12-08T12:34:38.062Z,100703.72
2022-12-08T12:37:15.312Z,100704.31
2022-12-08T12:39:54.083Z,100698.06
2022-12-08T12:42:43.143Z,100700.16
2022-12-08T12:45:27.123Z,100700.16
2022-12-08T12:47:57.647Z,100714.22
2022-12-08T12:50:39.532Z,100704.91
2022-12-08T12:53:23.830Z,100697.75
2022-12-08T12:56:03.355Z,100697.38
2022-12-08T12:58:33.688Z,100700.09
2022-12-08T13:01:13.709Z,100682.59
2022-12-08T13:03:46.912Z,100682.59
2022-12-08T13:06:25.748Z,100688.00
2022-12-08T13:08:58.013Z,100682.97
2022-12-08T13:11:28.980Z,100675.50
2022-12-08T13:14:04.777Z,100676.38
2022-12-08T13:16:41.096Z,100678.59
2022-12-08T13:19:17.917Z,100682.81
2022-12-08T13:21:48.501Z,100673.44
2022-12-08T13:24:34.574Z,100661.41
2022-12-08T13:27:05.018Z,100665.97
2022-12-08T13:29:38.181Z,100663.03
2022-12-08T13:32:14.498Z,100664.69
2022-12-08T13:34:53.955Z,100662.59
2022-12-08T13:37:39.658Z,100660.72
2022-12-08T13:40:18.181Z,100666.13
2022-12-08T13:42:51.300Z,100670.91
2022-12-08T13:46:12.227Z,100671.53
2022-12-08T13:53:49.183Z,100670.31
2022-12-08T13:55:49.758Z,100671.28
2022-12-08T13:57:38.790Z,100671.28
2022-12-08T14:00:17.545Z,100671.50
2022-12-08T14:02:50.549Z,100660.47
2022-12-08T14:05:40.823Z,100658.81
2022-12-08T14:11:40.044Z,100648.47
2022-12-08T14:15:00.672Z,100649.28
2022-12-08T14:17:24.236Z,100657.50
2022-12-08T14:20:00.401Z,100651.94
2022-12-08T14:22:37.618Z,100648.38
2022-12-08T14:25:12.774Z,100643.34
2022-12-08T14:27:43.644Z,100638.97
2022-12-08T14:30:17.284Z,100640.47
2022-12-08T14:32:55.767Z,100641.69
2022-12-08T14:35:37.909Z,100638.34
2022-12-08T14:38:18.540Z,100640.88
2022-12-08T14:40:51.179Z,100652.50
2022-12-08T14:43:22.235Z,100641.84
2022-12-08T14:45:54.322Z,100640.81
2022-12-08T14:48:42.970Z,100638.75
2022-12-08T14:51:23.059Z,100638.09
2022-12-08T14:54:03.093Z,100638.75
2022-12-08T14:56:37.880Z,100635.41
2022-12-08T14:59:31.070Z,100638.69
2022-12-08T15:02:26.650Z,100636.44
2022-12-08T15:05:23.393Z,100640.81
2022-12-08T15:07:56.182Z,100640.13
2022-12-08T15:10:28.966Z,100641.34
2022-12-08T15:13:21.924Z,100643.19
2022-12-08T15:15:58.655Z,100630.31
2022-12-08T15:18:37.888Z,100629.84
2022-12-08T15:21:10.111Z,100635.09
2022-12-08T15:23:50.474Z,100624.06
2022-12-08T15:26:23.276Z,100630.72
2022-12-08T15:28:54.327Z,100631.75
2022-12-08T15:31:25.845Z,100630.72
2022-12-08T15:33:56.712Z,100632.78
2022-12-08T15:36:29.729Z,100638.16
2022-12-08T15:39:00.202Z,100626.72
2022-12-08T15:41:30.617Z,100629.22
2022-12-08T15:44:01.678Z,100630.47
2022-12-08T15:46:32.646Z,100634.81
2022-12-08T15:49:03.646Z,100627.75
2022-12-08T15:51:37.755Z,100638.56
2022-12-08T15:54:08.068Z,100632.31
2022-12-08T15:57:10.544Z,100631.50
2022-12-08T15:59:34.405Z,100637.28
2022-12-08T16:02:05.602Z,100633.94
2022-12-08T16:05:25.176Z,100638.50
2022-12-08T16:07:29.657Z,100635.59
2022-12-08T16:09:59.948Z,100638.69
2022-12-08T16:13:48.116Z,100630.59
2022-12-08T16:15:55.133Z,100633.69
2022-12-08T16:18:33.286Z,100637.66
2022-12-08T16:23:54.774Z,100660.03
2022-12-08T16:27:35.058Z,100641.53
2022-12-08T16:29:22.414Z,100642.56
2022-12-08T16:31:53.680Z,100638.16
2022-12-08T16:34:23.957Z,100652.22
2022-12-08T16:36:54.291Z,100643.69
2022-12-08T16:39:25.587Z,100636.63
2022-12-08T16:42:15.138Z,100634.56
2022-12-08T16:44:45.717Z,100633.91
2022-12-08T16:47:16.790Z,100625.81
2022-12-08T16:49:47.706Z,100617.06
2022-12-08T16:52:19.433Z,100618.75
2022-12-08T16:54:50.524Z,100622.47
2022-12-08T16:57:21.097Z,100617.06
2022-12-08T16:59:52.658Z,100611.41
2022-12-08T17:02:23.158Z,100607.88
2022-12-08T17:04:53.640Z,100598.50
2022-12-08T17:07:24.662Z,100599.34
2022-12-08T17:09:55.001Z,100595.78
2022-12-08T17:12:25.477Z,100584.19
2022-12-08T17:14:55.821Z,100589.75
2022-12-08T17:17:26.354Z,100589.31
2022-12-08T17:20:09.256Z,100571.75
2022-12-08T17:22:40.109Z,100570.50
2022-12-08T17:25:11.075Z,100565.50
2022-12-08T17:27:42.347Z,100559.72
2022-12-08T17:30:16.481Z,100565.97
2022-12-08T17:32:50.192Z,100570.91
2022-12-08T17:35:20.927Z,100563.84
2022-12-08T17:37:51.451Z,100567.13
2022-12-08T17:40:23.651Z,100565.44
2022-12-08T17:42:57.838Z,100563.78
2022-12-08T17:45:28.136Z,100567.28
2022-12-08T17:47:58.645Z,100557.53
2022-12-08T17:50:29.296Z,100554.19
2022-12-08T17:52:59.913Z,100547.13
2022-12-08T17:55:31.010Z,100546.22
2022-12-08T17:58:02.387Z,100552.63
2022-12-08T18:00:33.740Z,100551.16
2022-12-08T18:03:04.576Z,100557.84
2022-12-08T18:05:36.263Z,100559.91
2022-12-08T18:08:06.979Z,100556.63
2022-12-08T18:10:37.478Z,100550.97
2022-12-08T18:13:10.393Z,100535.81
2022-12-08T18:15:41.023Z,100539.09
2022-12-08T18:18:11.324Z,100538.34
2022-12-08T18:20:42.299Z,100530.53
2022-12-08T18:23:12.625Z,100535.53
2022-12-08T18:25:42.682Z,100540.66
2022-12-08T18:28:12.935Z,100536.13
2022-12-08T18:30:43.467Z,100541.69
2022-12-08T18:33:13.755Z,100537.34
2022-12-08T18:35:44.242Z,100536.13
2022-12-08T18:38:14.790Z,100545.69
2022-12-08T18:40:44.896Z,100543.94
2022-12-08T18:43:15.978Z,100547.66
2022-12-08T18:45:46.845Z,100559.91
2022-12-08T18:48:17.695Z,100555.94
2022-12-08T18:50:49.714Z,100562.63
2022-12-08T18:53:20.358Z,100553.22
2022-12-08T18:55:51.939Z,100560.94
2022-12-08T18:58:22.962Z,100555.56
2022-12-08T19:00:53.736Z,100553.22
2022-12-08T19:03:24.510Z,100553.44
2022-12-08T19:06:08.162Z,100553.06
2022-12-08T19:08:38.764Z,100557.75
2022-12-08T19:11:25.138Z,100563.38
2022-12-08T19:13:56.483Z,100560.06
2022-12-08T19:16:26.973Z,100565.81
2022-12-08T19:18:58.127Z,100558.38
2022-12-08T19:21:28.662Z,100557.53
2022-12-08T19:23:59.607Z,100555.03
2022-12-08T19:26:30.520Z,100555.03
2022-12-08T19:29:01.094Z,100543.63
2022-12-08T19:31:31.389Z,100543.88
2022-12-08T19:34:02.025Z,100535.53
2022-12-08T19:36:36.338Z,100537.53
2022-12-08T19:39:25.399Z,100537.94
2022-12-08T19:42:14.165Z,100536.03
2022-12-08T19:44:54.033Z,100541.00
2022-12-08T19:47:26.358Z,100550.75
2022-12-08T19:50:17.254Z,100548.06
2022-12-08T19:52:47.793Z,100552.41
2022-12-08T19:55:18.643Z,100554.84
2022-12-08T19:57:49.227Z,100553.81
2022-12-08T20:00:20.901Z,100549.44
2022-12-08T20:02:52.623Z,100549.06
2022-12-08T20:05:24.331Z,100558.19
2022-12-08T20:07:56.653Z,100554.00
2022-12-08T20:10:29.774Z,100560.22
2022-12-08T20:13:18.295Z,100559.09
2022-12-08T20:15:48.874Z,100560.97
2022-12-08T20:18:20.053Z,100563.31
2022-12-08T20:20:50.674Z,100560.59
2022-12-08T20:23:21.178Z,100557.91
2022-12-08T20:25:53.740Z,100552.25
2022-12-08T20:28:24.773Z,100558.94
2022-12-08T20:30:55.308Z,100564.03
2022-12-08T20:33:26.104Z,100564.69
2022-12-08T20:36:01.249Z,100554.28
2022-12-08T20:38:32.229Z,100561.34
2022-12-08T20:41:02.765Z,100559.69
2022-12-08T20:43:33.448Z,100563.75
2022-12-08T20:46:12.166Z,100563.03
2022-12-08T20:48:43.832Z,100563.56
2022-12-08T20:51:19.302Z,100564.78
2022-12-08T20:53:49.702Z,100565.97
2022-12-08T20:56:22.839Z,100576.75
2022-12-08T20:58:54.273Z,100574.53
2022-12-08T21:01:26.094Z,100576.59
2022-12-08T21:03:56.748Z,100573.69
2022-12-08T21:06:30.789Z,100584.66
2022-12-08T21:09:01.580Z,100589.41
2022-12-08T21:11:32.527Z,100584.00
2022-12-08T21:14:04.822Z,100592.19
2022-12-08T21:16:35.621Z,100593.56
2022-12-08T21:19:06.937Z,100587.72
2022-12-08T21:21:37.178Z,100596.84
2022-12-08T21:24:08.421Z,100598.88
2022-12-08T21:26:39.535Z,100595.81
2022-12-08T21:29:18.352Z,100596.91
2022-12-08T21:31:49.151Z,100602.66
2022-12-08T21:34:19.510Z,100610.59
2022-12-08T21:36:50.426Z,100613.81
2022-12-08T21:39:21.066Z,100621.06
2022-12-08T21:42:22.859Z,100615.03
2022-12-08T21:44:53.983Z,100613.66
2022-12-08T21:47:24.725Z,100615.31
2022-12-08T21:49:56.027Z,100609.66
2022-12-08T21:52:26.932Z,100614.66
2022-12-08T21:54:57.749Z,100619.19
2022-12-08T21:57:28.832Z,100613.00
2022-12-08T21:59:59.634Z,100606.69
2022-12-08T22:02:30.528Z,100605.00
2022-12-08T22:05:01.524Z,100606.69
2022-12-08T22:07:32.962Z,100606.03
2022-12-08T22:10:03.913Z,100606.19
2022-12-08T22:12:36.800Z,100608.72
2022-12-08T22:15:09.069Z,100605.00
2022-12-08T22:17:44.478Z,100606.19
2022-12-08T22:20:16.377Z,100612.44
2022-12-08T22:22:47.711Z,100613.25
2022-12-08T22:25:18.415Z,100618.47
2022-12-08T22:27:49.007Z,100615.56
2022-12-08T22:30:19.486Z,100619.50
2022-12-08T22:32:49.883Z,100620.03
2022-12-08T22:35:20.395Z,100637.69
2022-12-08T22:37:51.643Z,100633.13
2022-12-08T22:40:22.414Z,100649.28
2022-12-08T22:42:52.835Z,100646.13
2022-12-08T22:45:24.834Z,100651.03
2022-12-08T22:47:55.432Z,100653.25
2022-12-08T22:50:26.470Z,100662.72
2022-12-08T22:52:56.624Z,100663.84
2022-12-08T22:55:27.503Z,100665.72
2022-12-08T22:57:58.162Z,100667.91
2022-12-08T23:00:29.390Z,100668.56
2022-12-08T23:03:00.236Z,100668.56
2022-12-08T23:05:35.108Z,100664.03
2022-12-08T23:08:06.662Z,100670.81
2022-12-08T23:10:37.676Z,100675.50
2022-12-08T23:13:08.734Z,100681.91
2022-12-08T23:15:40.511Z,100687.09
2022-12-08T23:18:16.335Z,100689.97
2022-12-08T23:20:47.679Z,100684.91
2022-12-08T23:23:18.646Z,100690.31
2022-12-08T23:25:49.019Z,100706.13
2022-12-08T23:28:19.364Z,100717.56
2022-12-08T23:30:49.953Z,100711.88
2022-12-08T23:33:20.931Z,100726.00
2022-12-08T23:35:59.215Z,100732.25
2022-12-08T23:38:31.665Z,100740.47
2022-12-08T23:41:06.543Z,100751.25
2022-12-08T23:43:37.360Z,100751.25
2022-12-08T23:46:08.515Z,100751.72
2022-12-08T23:48:39.146Z,100757.63
2022-12-08T23:51:09.793Z,100754.28
2022-12-08T23:53:40.169Z,100765.06
2022-12-08T23:56:17.014Z,100761.34
2022-12-08T23:58:48.116Z,100762.03
